createdAt,value
2023-05-15T00:03:06.743Z,84.22
2023-05-15T00:08:09.392Z,84.26
2023-05-15T00:13:11.059Z,84.32
2023-05-15T00:18:12.802Z,84.20
2023-05-15T00:23:14.567Z,84.14
2023-05-15T00:28:16.296Z,84.36
2023-05-15T00:33:18.090Z,84.68
2023-05-15T00:38:19.752Z,85.03
2023-05-15T00:43:21.997Z,85.22
2023-05-15T00:48:25.387Z,85.16
2023-05-15T00:53:28.404Z,85.33
2023-05-15T00:58:32.089Z,85.24
2023-05-15T01:03:33.852Z,85.20
2023-05-15T01:08:49.746Z,85.52
2023-05-15T01:13:51.405Z,85.50
2023-05-15T01:18:53.307Z,85.64
2023-05-15T01:24:12.403Z,85.82
2023-05-15T01:29:26.710Z,85.62
2023-05-15T01:34:34.337Z,85.64
2023-05-15T01:39:38.981Z,85.71
2023-05-15T01:44:46.286Z,85.64
2023-05-15T01:49:51.070Z,85.61
2023-05-15T01:54:54.773Z,85.46
2023-05-15T01:59:58.737Z,85.63
2023-05-15T02:05:01.526Z,85.37
2023-05-15T02:10:04.732Z,85.26
2023-05-15T02:15:10.285Z,85.15
2023-05-15T02:20:12.307Z,84.73
2023-05-15T02:25:14.150Z,84.69
2023-05-15T02:30:57.451Z,84.76
2023-05-15T02:36:04.690Z,84.47
2023-05-15T02:41:07.870Z,84.54
2023-05-15T02:46:12.131Z,84.52
2023-05-15T02:51:14.310Z,84.58
2023-05-15T02:56:16.054Z,84.71
2023-05-15T03:01:17.820Z,84.65
2023-05-15T03:06:19.548Z,85.00
2023-05-15T03:11:21.451Z,84.48
2023-05-15T03:16:23.274Z,84.50
2023-05-15T03:21:25.028Z,84.88
2023-05-15T03:26:27.194Z,85.03
2023-05-15T03:31:29.021Z,85.33
2023-05-15T03:36:31.598Z,84.89
2023-05-15T03:41:33.254Z,84.68
2023-05-15T03:46:35.578Z,84.69
2023-05-15T03:51:37.528Z,84.74
2023-05-15T03:56:39.258Z,84.65
2023-05-15T04:01:54.812Z,84.82
2023-05-15T04:07:07.521Z,84.87
2023-05-15T04:12:09.305Z,84.91
2023-05-15T04:17:11.015Z,84.74
2023-05-15T04:22:13.099Z,85.01
2023-05-15T04:27:14.794Z,85.18
2023-05-15T04:32:16.526Z,85.01
2023-05-15T04:37:18.617Z,85.03
2023-05-15T04:42:20.798Z,85.13
2023-05-15T04:47:22.556Z,85.12
2023-05-15T04:52:24.655Z,85.19
2023-05-15T04:57:26.734Z,85.02
2023-05-15T05:02:28.512Z,84.80
2023-05-15T05:07:30.614Z,84.54
2023-05-15T05:12:32.365Z,84.45
2023-05-15T05:17:34.187Z,84.01
2023-05-15T05:22:35.971Z,83.76
2023-05-15T05:27:37.688Z,84.04
2023-05-15T05:32:39.345Z,83.67
2023-05-15T05:37:41.540Z,83.58
2023-05-15T05:42:43.655Z,83.33
2023-05-15T05:47:45.627Z,82.90
2023-05-15T05:52:47.345Z,82.46
2023-05-15T05:57:49.089Z,82.49
2023-05-15T06:02:56.618Z,82.13
2023-05-15T06:07:59.896Z,81.86
2023-05-15T06:13:01.682Z,81.49
2023-05-15T06:18:03.623Z,80.76
2023-05-15T06:23:05.582Z,80.66
2023-05-15T06:28:07.385Z,80.39
2023-05-15T06:33:09.152Z,80.57
2023-05-15T06:38:10.972Z,79.72
2023-05-15T06:43:12.769Z,79.64
2023-05-15T06:48:14.508Z,80.33
2023-05-15T06:53:17.733Z,80.85
2023-05-15T06:58:19.434Z,81.04
2023-05-15T07:03:21.179Z,80.64
2023-05-15T07:08:22.820Z,79.89
2023-05-15T07:13:34.806Z,79.92
2023-05-15T07:18:36.723Z,80.06
2023-05-15T07:23:38.462Z,79.86
2023-05-15T07:28:40.142Z,79.50
2023-05-15T07:33:41.763Z,79.17
2023-05-15T07:38:43.443Z,79.15
2023-05-15T07:43:45.097Z,78.89
2023-05-15T07:48:46.906Z,78.39
2023-05-15T07:53:48.570Z,78.09
2023-05-15T07:58:50.299Z,78.14
2023-05-15T08:03:52.163Z,78.31
2023-05-15T08:08:53.933Z,78.28
2023-05-15T08:13:55.650Z,78.13
2023-05-15T08:19:01.645Z,77.18
2023-05-15T08:24:03.808Z,77.58
2023-05-15T08:29:05.553Z,77.45
2023-05-15T08:34:10.789Z,77.39
2023-05-15T08:39:12.988Z,77.79
2023-05-15T08:44:14.773Z,77.89
2023-05-15T08:49:42.387Z,77.51
2023-05-15T08:54:45.468Z,77.08
2023-05-15T08:59:51.368Z,77.11
2023-05-15T09:04:53.221Z,77.18
2023-05-15T09:09:56.996Z,76.88
2023-05-15T09:15:09.790Z,76.94
2023-05-15T09:20:34.644Z,76.51
2023-05-15T09:25:41.628Z,76.07
2023-05-15T09:30:43.408Z,75.40
2023-05-15T09:35:46.181Z,75.48
2023-05-15T09:40:47.874Z,75.06
2023-05-15T09:45:49.669Z,74.69
2023-05-15T09:50:51.995Z,75.07
2023-05-15T09:55:54.588Z,74.81
2023-05-15T10:00:59.618Z,74.68
2023-05-15T10:06:03.411Z,73.81
2023-05-15T10:11:06.543Z,73.04
2023-05-15T10:16:08.414Z,70.99
2023-05-15T10:21:10.411Z,69.56
2023-05-15T10:26:18.694Z,67.29
2023-05-15T10:31:21.912Z,66.55
2023-05-15T10:36:24.790Z,66.90
2023-05-15T10:41:27.318Z,67.10
2023-05-15T10:46:31.708Z,66.44
2023-05-15T10:51:36.098Z,64.10
2023-05-15T10:56:39.472Z,63.73
2023-05-15T11:01:42.120Z,63.34
2023-05-15T11:06:46.596Z,62.17
2023-05-15T11:11:51.320Z,61.94
2023-05-15T11:16:53.637Z,61.77
2023-05-15T11:22:18.800Z,61.18
2023-05-15T11:27:26.082Z,59.48
2023-05-15T11:32:33.407Z,59.17
2023-05-15T11:37:38.790Z,59.68
2023-05-15T11:42:41.752Z,58.86
2023-05-15T11:47:45.430Z,57.50
2023-05-15T11:52:49.721Z,56.57
2023-05-15T11:57:51.629Z,57.52
2023-05-15T12:02:53.726Z,57.01
2023-05-15T12:07:55.604Z,54.49
2023-05-15T12:12:58.849Z,53.13
2023-05-15T12:18:03.579Z,51.15
2023-05-15T12:23:08.094Z,51.34
2023-05-15T12:28:11.766Z,51.30
2023-05-15T12:33:13.957Z,51.09
2023-05-15T12:38:18.678Z,51.13
2023-05-15T12:43:23.651Z,50.70
2023-05-15T12:48:32.703Z,49.40
2023-05-15T12:53:34.923Z,49.79
2023-05-15T12:58:37.399Z,49.36
2023-05-15T13:03:39.176Z,48.77
2023-05-15T13:08:41.982Z,49.58
2023-05-15T13:13:45.359Z,49.43
2023-05-15T13:18:47.179Z,48.77
2023-05-15T13:23:49.351Z,48.68
2023-05-15T13:28:51.056Z,48.60
2023-05-15T13:33:52.801Z,48.54
2023-05-15T13:38:54.511Z,48.92
2023-05-15T13:43:56.178Z,48.72
2023-05-15T13:48:57.793Z,49.00
2023-05-15T13:53:59.467Z,48.53
2023-05-15T13:59:01.191Z,48.07
2023-05-15T14:04:03.859Z,49.86
2023-05-15T14:09:07.424Z,50.01
2023-05-15T14:14:09.048Z,49.30
2023-05-15T14:19:10.769Z,49.68
2023-05-15T14:24:12.494Z,48.94
2023-05-15T14:29:14.458Z,50.07
2023-05-15T14:34:17.004Z,51.02
2023-05-15T14:39:18.971Z,52.92
2023-05-15T14:44:20.808Z,54.75
2023-05-15T14:49:22.481Z,57.80
2023-05-15T14:54:24.172Z,58.94
2023-05-15T14:59:27.680Z,58.34
2023-05-15T15:04:34.184Z,57.36
2023-05-15T15:09:35.956Z,57.53
2023-05-15T15:14:37.615Z,58.13
2023-05-15T15:19:39.426Z,57.24
2023-05-15T15:24:41.047Z,56.90
2023-05-15T15:29:42.697Z,56.63
2023-05-15T15:34:44.393Z,56.80
2023-05-15T15:39:46.074Z,57.35
2023-05-15T15:44:47.895Z,58.25
2023-05-15T15:49:53.251Z,58.60
2023-05-15T15:54:54.987Z,59.15
2023-05-15T15:59:56.629Z,59.42
2023-05-15T16:04:58.539Z,59.97
2023-05-15T16:10:11.883Z,60.25
2023-05-15T16:15:23.102Z,60.03
2023-05-15T16:20:26.219Z,58.72
2023-05-15T16:25:28.122Z,58.00
2023-05-15T16:30:44.325Z,56.64
2023-05-15T16:35:51.904Z,55.37
2023-05-15T16:40:53.559Z,54.17
2023-05-15T16:45:55.390Z,53.51
2023-05-15T16:50:57.178Z,54.32
2023-05-15T16:55:58.958Z,54.37
2023-05-15T17:01:01.197Z,54.74
2023-05-15T17:06:02.906Z,55.74
2023-05-15T17:11:05.466Z,56.68
2023-05-15T17:16:08.749Z,58.15
2023-05-15T17:21:11.054Z,59.32
2023-05-15T17:26:12.667Z,60.46
2023-05-15T17:31:14.319Z,61.47
2023-05-15T17:36:15.945Z,62.64
2023-05-15T17:41:18.347Z,63.25
2023-05-15T17:46:20.402Z,63.29
2023-05-15T17:51:22.081Z,63.50
2023-05-15T17:56:23.759Z,63.82
2023-05-15T18:01:25.558Z,64.54
2023-05-15T18:06:28.124Z,65.11
2023-05-15T18:11:29.798Z,65.59
2023-05-15T18:16:32.722Z,66.76
2023-05-15T18:21:37.018Z,67.42
2023-05-15T18:26:39.663Z,67.97
2023-05-15T18:31:41.373Z,68.04
2023-05-15T18:36:43.052Z,67.88
2023-05-15T18:41:44.711Z,68.46
2023-05-15T18:46:46.359Z,68.74
2023-05-15T18:51:48.159Z,68.74
2023-05-15T18:56:49.889Z,69.09
2023-05-15T19:01:53.696Z,69.58
2023-05-15T19:06:55.671Z,69.60
2023-05-15T19:12:03.490Z,70.13
2023-05-15T19:17:05.471Z,70.75
2023-05-15T19:22:07.371Z,71.23
2023-05-15T19:27:09.125Z,72.06
2023-05-15T19:32:10.936Z,72.38
2023-05-15T19:37:12.631Z,72.74
2023-05-15T19:42:14.277Z,73.10
2023-05-15T19:47:15.953Z,73.09
2023-05-15T19:52:19.283Z,73.06
2023-05-15T19:57:20.985Z,73.10
2023-05-15T20:02:23.182Z,73.22
2023-05-15T20:07:25.122Z,73.40
2023-05-15T20:12:26.784Z,73.80
2023-05-15T20:17:28.482Z,74.26
2023-05-15T20:22:30.581Z,74.93
2023-05-15T20:27:32.657Z,75.68
2023-05-15T20:32:34.441Z,76.18
2023-05-15T20:37:36.508Z,76.57
2023-05-15T20:42:38.750Z,76.61
2023-05-15T20:47:40.969Z,77.15
2023-05-15T20:52:42.821Z,77.04
2023-05-15T20:57:46.322Z,77.31
2023-05-15T21:02:48.075Z,77.73
2023-05-15T21:07:50.299Z,78.05
2023-05-15T21:12:52.897Z,78.30
2023-05-15T21:17:54.577Z,78.42
2023-05-15T21:22:56.228Z,78.59
2023-05-15T21:27:58.982Z,78.97
2023-05-15T21:33:01.864Z,78.85
2023-05-15T21:38:03.669Z,78.62
2023-05-15T21:43:06.129Z,78.41
2023-05-15T21:48:09.922Z,78.49
2023-05-15T21:53:11.665Z,78.39
2023-05-15T21:58:13.308Z,78.44
2023-05-15T22:03:15.051Z,78.80
2023-05-15T22:08:17.022Z,78.99
2023-05-15T22:13:18.684Z,79.52
2023-05-15T22:18:21.282Z,79.64
2023-05-15T22:23:22.977Z,79.69
2023-05-15T22:28:24.875Z,79.65
2023-05-15T22:33:27.152Z,79.66
2023-05-15T22:38:29.341Z,79.30
2023-05-15T22:43:31.498Z,79.71
2023-05-15T22:48:34.032Z,79.87
2023-05-15T22:53:35.787Z,80.13
2023-05-15T22:58:37.481Z,80.20
2023-05-15T23:03:39.184Z,80.33
2023-05-15T23:08:41.826Z,80.39
2023-05-15T23:13:50.777Z,80.57
2023-05-15T23:18:52.979Z,80.57
2023-05-15T23:23:55.050Z,80.47
2023-05-15T23:28:56.722Z,80.75
2023-05-15T23:33:58.351Z,81.41
2023-05-15T23:39:00.558Z,81.56
2023-05-15T23:44:02.962Z,81.40
2023-05-15T23:49:06.633Z,81.32
2023-05-15T23:54:08.646Z,81.39
2023-05-15T23:59:10.468Z,81.74
